sensor_id;sensor_type;location;lat;lon;timestamp;temperature;humidity
30290;DHT22;17105;55.652;37.710;2022-07-29T07:48:19;29.10;52.00
30290;DHT22;17105;55.652;37.710;2022-07-29T07:48:55;29.20;52.40
30290;DHT22;17105;55.652;37.710;2022-07-29T07:49:29;29.30;51.40
30290;DHT22;17105;55.652;37.710;2022-07-29T07:50:06;29.30;51.00
30290;DHT22;17105;55.652;37.710;2022-07-29T07:50:51;29.30;50.80
30290;DHT22;17105;55.652;37.710;2022-07-29T07:51:26;29.30;50.80
30290;DHT22;17105;55.652;37.710;2022-07-29T07:52:01;29.40;50.40
30290;DHT22;17105;55.652;37.710;2022-07-29T07:52:46;29.50;50.20
30290;DHT22;17105;55.652;37.710;2022-07-29T07:53:20;29.40;49.80
30290;DHT22;17105;55.652;37.710;2022-07-29T07:53:55;29.40;49.70
30290;DHT22;17105;55.652;37.710;2022-07-29T07:54:30;29.30;49.30
30290;DHT22;17105;55.652;37.710;2022-07-29T07:55:07;29.30;49.20
30290;DHT22;17105;55.652;37.710;2022-07-29T07:55:45;29.10;49.10
30290;DHT22;17105;55.652;37.710;2022-07-29T07:56:39;29.00;49.50
30290;DHT22;17105;55.652;37.710;2022-07-29T07:57:15;28.90;50.20
30290;DHT22;17105;55.652;37.710;2022-07-29T07:57:49;28.80;49.80
30290;DHT22;17105;55.652;37.710;2022-07-29T07:58:26;28.70;50.00
30290;DHT22;17105;55.652;37.710;2022-07-29T07:59:00;28.60;50.00
30290;DHT22;17105;55.652;37.710;2022-07-29T07:59:35;28.50;49.80
30290;DHT22;17105;55.652;37.710;2022-07-29T08:00:12;28.50;50.00
30290;DHT22;17105;55.652;37.710;2022-07-29T08:00:47;28.40;50.00
30290;DHT22;17105;55.652;37.710;2022-07-29T08:01:23;28.40;50.00
30290;DHT22;17105;55.652;37.710;2022-07-29T08:01:56;28.30;50.10
30290;DHT22;17105;55.652;37.710;2022-07-29T08:02:31;28.20;50.20
30290;DHT22;17105;55.652;37.710;2022-07-29T08:03:05;28.10;50.10
30290;DHT22;17105;55.652;37.710;2022-07-29T08:03:49;28.10;49.90
30290;DHT22;17105;55.652;37.710;2022-07-29T08:04:24;28.00;49.90
30290;DHT22;17105;55.652;37.710;2022-07-29T08:05:02;27.90;49.90
30290;DHT22;17105;55.652;37.710;2022-07-29T08:05:35;27.80;50.00
30290;DHT22;17105;55.652;37.710;2022-07-29T08:06:11;27.80;50.30
30290;DHT22;17105;55.652;37.710;2022-07-29T08:06:47;27.70;50.40
30290;DHT22;17105;55.652;37.710;2022-07-29T08:07:23;27.70;50.30
30290;DHT22;17105;55.652;37.710;2022-07-29T08:07:59;27.60;50.10
30290;DHT22;17105;55.652;37.710;2022-07-29T08:08:33;27.60;50.10
30290;DHT22;17105;55.652;37.710;2022-07-29T08:09:10;27.60;50.90
30290;DHT22;17105;55.652;37.710;2022-07-29T08:10:01;27.50;50.20
30290;DHT22;17105;55.652;37.710;2022-07-29T08:10:36;27.40;50.50
30290;DHT22;17105;55.652;37.710;2022-07-29T08:11:26;27.30;50.50
30290;DHT22;17105;55.652;37.710;2022-07-29T08:12:08;27.30;50.70
30290;DHT22;17105;55.652;37.710;2022-07-29T08:12:42;27.20;50.90
30290;DHT22;17105;55.652;37.710;2022-07-29T08:13:15;27.20;51.30
30290;DHT22;17105;55.652;37.710;2022-07-29T08:13:51;27.20;51.50
30290;DHT22;17105;55.652;37.710;2022-07-29T08:14:25;27.10;51.40
30290;DHT22;17105;55.652;37.710;2022-07-29T08:15:01;27.10;51.70
30290;DHT22;17105;55.652;37.710;2022-07-29T08:15:35;27.10;51.90
30290;DHT22;17105;55.652;37.710;2022-07-29T08:16:09;27.10;51.90
30290;DHT22;17105;55.652;37.710;2022-07-29T08:16:48;27.00;51.50
30290;DHT22;17105;55.652;37.710;2022-07-29T08:17:23;27.00;51.70
30290;DHT22;17105;55.652;37.710;2022-07-29T08:17:58;26.90;51.30
30290;DHT22;17105;55.652;37.710;2022-07-29T08:18:41;26.90;51.10
30290;DHT22;17105;55.652;37.710;2022-07-29T08:19:16;26.90;50.80
30290;DHT22;17105;55.652;37.710;2022-07-29T08:19:51;26.90;50.70
30290;DHT22;17105;55.652;37.710;2022-07-29T08:20:26;26.90;51.60
30290;DHT22;17105;55.652;37.710;2022-07-29T08:21:00;26.80;52.10
30290;DHT22;17105;55.652;37.710;2022-07-29T08:21:35;26.90;52.10
30290;DHT22;17105;55.652;37.710;2022-07-29T08:22:10;26.90;51.40
30290;DHT22;17105;55.652;37.710;2022-07-29T08:22:46;26.90;51.30
30290;DHT22;17105;55.652;37.710;2022-07-29T08:23:20;26.90;51.30
30290;DHT22;17105;55.652;37.710;2022-07-29T08:23:57;27.00;51.10
30290;DHT22;17105;55.652;37.710;2022-07-29T08:24:46;27.00;51.00
30290;DHT22;17105;55.652;37.710;2022-07-29T08:25:27;27.00;51.10
30290;DHT22;17105;55.652;37.710;2022-07-29T08:26:02;27.10;50.90
30290;DHT22;17105;55.652;37.710;2022-07-29T08:26:37;27.10;50.70
30290;DHT22;17105;55.652;37.710;2022-07-29T08:27:11;27.10;50.20
30290;DHT22;17105;55.652;37.710;2022-07-29T08:28:06;27.10;50.00
30290;DHT22;17105;55.652;37.710;2022-07-29T08:28:41;27.10;50.60
30290;DHT22;17105;55.652;37.710;2022-07-29T08:29:19;27.10;50.90
30290;DHT22;17105;55.652;37.710;2022-07-29T08:29:54;27.10;51.30
30290;DHT22;17105;55.652;37.710;2022-07-29T08:30:30;27.10;51.40
30290;DHT22;17105;55.652;37.710;2022-07-29T08:31:06;27.20;51.00
30290;DHT22;17105;55.652;37.710;2022-07-29T08:31:40;27.20;51.20
30290;DHT22;17105;55.652;37.710;2022-07-29T08:32:14;27.20;51.80
30290;DHT22;17105;55.652;37.710;2022-07-29T08:33:08;27.20;51.20
30290;DHT22;17105;55.652;37.710;2022-07-29T08:33:43;27.30;50.70
30290;DHT22;17105;55.652;37.710;2022-07-29T08:34:18;27.30;50.50
30290;DHT22;17105;55.652;37.710;2022-07-29T08:35:00;27.30;50.30
30290;DHT22;17105;55.652;37.710;2022-07-29T08:35:34;27.30;50.50
30290;DHT22;17105;55.652;37.710;2022-07-29T08:36:08;27.30;50.50
30290;DHT22;17105;55.652;37.710;2022-07-29T08:36:43;27.30;51.00
30290;DHT22;17105;55.652;37.710;2022-07-29T08:37:24;27.30;50.60
30290;DHT22;17105;55.652;37.710;2022-07-29T08:37:59;27.30;50.30
30290;DHT22;17105;55.652;37.710;2022-07-29T08:38:34;27.20;50.30
30290;DHT22;17105;55.652;37.710;2022-07-29T08:39:10;27.20;50.00
30290;DHT22;17105;55.652;37.710;2022-07-29T08:39:45;27.10;49.60
30290;DHT22;17105;55.652;37.710;2022-07-29T08:40:20;27.10;49.30
30290;DHT22;17105;55.652;37.710;2022-07-29T08:41:04;27.10;49.20
30290;DHT22;17105;55.652;37.710;2022-07-29T08:41:39;27.00;48.90
30290;DHT22;17105;55.652;37.710;2022-07-29T08:42:29;27.00;48.70
30290;DHT22;17105;55.652;37.710;2022-07-29T08:43:06;26.90;48.70
30290;DHT22;17105;55.652;37.710;2022-07-29T08:43:41;26.90;48.90
30290;DHT22;17105;55.652;37.710;2022-07-29T08:44:16;26.80;49.00
30290;DHT22;17105;55.652;37.710;2022-07-29T08:45:05;26.80;49.00
30290;DHT22;17105;55.652;37.710;2022-07-29T08:45:43;26.80;49.50
30290;DHT22;17105;55.652;37.710;2022-07-29T08:46:20;26.80;48.80
30290;DHT22;17105;55.652;37.710;2022-07-29T08:46:55;26.80;48.70
30290;DHT22;17105;55.652;37.710;2022-07-29T08:47:30;26.80;48.60
30290;DHT22;17105;55.652;37.710;2022-07-29T08:48:05;26.80;49.00
30290;DHT22;17105;55.652;37.710;2022-07-29T08:48:42;26.70;48.80
30290;DHT22;17105;55.652;37.710;2022-07-29T08:49:19;26.70;48.80
30290;DHT22;17105;55.652;37.710;2022-07-29T08:49:54;26.70;48.50
30290;DHT22;17105;55.652;37.710;2022-07-29T08:50:29;26.60;48.30
30290;DHT22;17105;55.652;37.710;2022-07-29T08:51:07;26.60;49.30
30290;DHT22;17105;55.652;37.710;2022-07-29T08:51:42;26.60;49.20
30290;DHT22;17105;55.652;37.710;2022-07-29T08:52:25;26.50;49.30
30290;DHT22;17105;55.652;37.710;2022-07-29T08:53:00;26.60;49.20
30290;DHT22;17105;55.652;37.710;2022-07-29T08:53:35;26.60;49.30
30290;DHT22;17105;55.652;37.710;2022-07-29T08:54:11;26.60;49.40
30290;DHT22;17105;55.652;37.710;2022-07-29T08:54:50;26.60;49.10
30290;DHT22;17105;55.652;37.710;2022-07-29T08:55:28;26.60;48.90
30290;DHT22;17105;55.652;37.710;2022-07-29T08:56:03;26.60;48.60
30290;DHT22;17105;55.652;37.710;2022-07-29T08:56:39;26.60;48.60
30290;DHT22;17105;55.652;37.710;2022-07-29T08:57:14;26.50;48.90
30290;DHT22;17105;55.652;37.710;2022-07-29T08:57:49;26.50;48.70
30290;DHT22;17105;55.652;37.710;2022-07-29T08:58:32;26.50;48.80
30290;DHT22;17105;55.652;37.710;2022-07-29T08:59:10;26.50;49.00
30290;DHT22;17105;55.652;37.710;2022-07-29T08:59:50;26.40;49.00
30290;DHT22;17105;55.652;37.710;2022-07-29T09:00:28;26.40;49.00
30290;DHT22;17105;55.652;37.710;2022-07-29T09:01:04;26.40;49.30
30290;DHT22;17105;55.652;37.710;2022-07-29T09:01:43;26.40;49.50
30290;DHT22;17105;55.652;37.710;2022-07-29T09:02:22;26.30;49.60
30290;DHT22;17105;55.652;37.710;2022-07-29T09:02:57;26.30;50.00
30290;DHT22;17105;55.652;37.710;2022-07-29T09:03:33;26.20;49.30
30290;DHT22;17105;55.652;37.710;2022-07-29T09:04:46;26.20;49.40
30290;DHT22;17105;55.652;37.710;2022-07-29T09:05:21;26.10;49.90
30290;DHT22;17105;55.652;37.710;2022-07-29T09:05:58;26.00;50.00
30290;DHT22;17105;55.652;37.710;2022-07-29T09:06:36;26.00;50.20
30290;DHT22;17105;55.652;37.710;2022-07-29T09:07:15;26.00;50.50
30290;DHT22;17105;55.652;37.710;2022-07-29T09:07:52;26.00;50.80
30290;DHT22;17105;55.652;37.710;2022-07-29T09:08:27;26.00;50.80
30290;DHT22;17105;55.652;37.710;2022-07-29T09:09:03;25.90;51.00
30290;DHT22;17105;55.652;37.710;2022-07-29T09:09:38;25.90;51.10
30290;DHT22;17105;55.652;37.710;2022-07-29T09:10:13;26.00;51.60
30290;DHT22;17105;55.652;37.710;2022-07-29T09:10:47;25.90;51.70
30290;DHT22;17105;55.652;37.710;2022-07-29T09:11:21;26.00;51.90
30290;DHT22;17105;55.652;37.710;2022-07-29T09:11:59;26.00;51.80
30290;DHT22;17105;55.652;37.710;2022-07-29T09:12:33;26.00;51.40
30290;DHT22;17105;55.652;37.710;2022-07-29T09:13:10;26.00;51.60
30290;DHT22;17105;55.652;37.710;2022-07-29T09:13:45;26.00;51.60
30290;DHT22;17105;55.652;37.710;2022-07-29T09:14:22;26.10;51.30
30290;DHT22;17105;55.652;37.710;2022-07-29T09:14:58;26.10;51.40
30290;DHT22;17105;55.652;37.710;2022-07-29T09:15:32;26.10;51.40
30290;DHT22;17105;55.652;37.710;2022-07-29T09:16:07;26.10;51.30
30290;DHT22;17105;55.652;37.710;2022-07-29T09:16:49;26.10;51.10
30290;DHT22;17105;55.652;37.710;2022-07-29T09:17:41;26.10;51.00
30290;DHT22;17105;55.652;37.710;2022-07-29T09:18:33;26.10;50.40
30290;DHT22;17105;55.652;37.710;2022-07-29T09:19:20;26.10;50.20
30290;DHT22;17105;55.652;37.710;2022-07-29T09:20:09;26.10;50.10
30290;DHT22;17105;55.652;37.710;2022-07-29T09:20:51;26.10;50.30
30290;DHT22;17105;55.652;37.710;2022-07-29T09:21:44;26.00;50.20
30290;DHT22;17105;55.652;37.710;2022-07-29T09:22:35;26.10;50.60
30290;DHT22;17105;55.652;37.710;2022-07-29T09:23:15;26.20;50.20
30290;DHT22;17105;55.652;37.710;2022-07-29T09:24:05;26.10;50.00
30290;DHT22;17105;55.652;37.710;2022-07-29T09:24:43;26.20;50.50
30290;DHT22;17105;55.652;37.710;2022-07-29T09:25:32;26.20;50.60
30290;DHT22;17105;55.652;37.710;2022-07-29T09:26:08;26.20;50.50
30290;DHT22;17105;55.652;37.710;2022-07-29T09:26:44;26.20;50.60
30290;DHT22;17105;55.652;37.710;2022-07-29T09:27:21;26.20;50.40
30290;DHT22;17105;55.652;37.710;2022-07-29T09:28:05;26.30;50.30
30290;DHT22;17105;55.652;37.710;2022-07-29T09:28:42;26.30;50.10
30290;DHT22;17105;55.652;37.710;2022-07-29T09:29:18;26.30;50.20
30290;DHT22;17105;55.652;37.710;2022-07-29T09:30:00;26.30;50.40
30290;DHT22;17105;55.652;37.710;2022-07-29T09:30:35;26.40;50.50
30290;DHT22;17105;55.652;37.710;2022-07-29T09:31:09;26.30;50.10
30290;DHT22;17105;55.652;37.710;2022-07-29T09:31:46;26.30;50.00
30290;DHT22;17105;55.652;37.710;2022-07-29T09:32:20;26.40;50.00
30290;DHT22;17105;55.652;37.710;2022-07-29T09:32:58;26.40;49.70
30290;DHT22;17105;55.652;37.710;2022-07-29T09:33:35;26.40;50.40
30290;DHT22;17105;55.652;37.710;2022-07-29T09:34:14;26.40;49.50
30290;DHT22;17105;55.652;37.710;2022-07-29T09:34:51;26.40;49.30
30290;DHT22;17105;55.652;37.710;2022-07-29T09:35:45;26.40;49.40
30290;DHT22;17105;55.652;37.710;2022-07-29T09:36:28;26.50;49.70
30290;DHT22;17105;55.652;37.710;2022-07-29T09:37:04;26.50;49.50
30290;DHT22;17105;55.652;37.710;2022-07-29T09:37:41;26.50;49.40
30290;DHT22;17105;55.652;37.710;2022-07-29T09:38:16;26.50;49.50
30290;DHT22;17105;55.652;37.710;2022-07-29T09:38:57;26.60;49.80
30290;DHT22;17105;55.652;37.710;2022-07-29T09:39:33;26.60;49.80
30290;DHT22;17105;55.652;37.710;2022-07-29T09:40:15;26.60;49.60
30290;DHT22;17105;55.652;37.710;2022-07-29T09:40:56;26.60;50.40
30290;DHT22;17105;55.652;37.710;2022-07-29T09:41:45;26.60;50.80
30290;DHT22;17105;55.652;37.710;2022-07-29T09:42:28;26.60;51.20
30290;DHT22;17105;55.652;37.710;2022-07-29T09:43:10;26.60;50.30
30290;DHT22;17105;55.652;37.710;2022-07-29T09:43:54;26.70;50.00
30290;DHT22;17105;55.652;37.710;2022-07-29T09:44:41;26.60;50.00
30290;DHT22;17105;55.652;37.710;2022-07-29T09:45:28;26.60;50.00
30290;DHT22;17105;55.652;37.710;2022-07-29T09:46:11;26.60;50.00
30290;DHT22;17105;55.652;37.710;2022-07-29T09:47:07;26.60;49.80
30290;DHT22;17105;55.652;37.710;2022-07-29T09:47:44;26.60;49.60
30290;DHT22;17105;55.652;37.710;2022-07-29T09:48:24;26.50;49.50
30290;DHT22;17105;55.652;37.710;2022-07-29T09:49:07;26.50;50.20
30290;DHT22;17105;55.652;37.710;2022-07-29T09:49:59;26.60;50.00
30290;DHT22;17105;55.652;37.710;2022-07-29T09:50:36;26.50;50.00
30290;DHT22;17105;55.652;37.710;2022-07-29T09:51:17;26.60;50.30
30290;DHT22;17105;55.652;37.710;2022-07-29T09:52:03;26.50;50.30
30290;DHT22;17105;55.652;37.710;2022-07-29T09:52:45;26.50;50.00
30290;DHT22;17105;55.652;37.710;2022-07-29T09:53:34;26.50;49.90
30290;DHT22;17105;55.652;37.710;2022-07-29T09:54:22;26.50;49.50
30290;DHT22;17105;55.652;37.710;2022-07-29T09:55:05;26.50;49.30
30290;DHT22;17105;55.652;37.710;2022-07-29T09:55:48;26.40;49.40
30290;DHT22;17105;55.652;37.710;2022-07-29T09:56:38;26.40;49.70
30290;DHT22;17105;55.652;37.710;2022-07-29T09:57:23;26.50;49.80
30290;DHT22;17105;55.652;37.710;2022-07-29T09:58:16;26.50;50.20
30290;DHT22;17105;55.652;37.710;2022-07-29T09:59:05;26.50;52.10
30290;DHT22;17105;55.652;37.710;2022-07-29T09:59:56;26.50;50.90
30290;DHT22;17105;55.652;37.710;2022-07-29T10:00:31;26.50;51.00
30290;DHT22;17105;55.652;37.710;2022-07-29T10:01:27;26.50;51.10
30290;DHT22;17105;55.652;37.710;2022-07-29T10:02:11;26.60;50.80
30290;DHT22;17105;55.652;37.710;2022-07-29T10:03:00;26.60;50.60
30290;DHT22;17105;55.652;37.710;2022-07-29T10:03:50;26.60;50.20
30290;DHT22;17105;55.652;37.710;2022-07-29T10:04:37;26.70;49.90
30290;DHT22;17105;55.652;37.710;2022-07-29T10:05:20;26.60;49.90
30290;DHT22;17105;55.652;37.710;2022-07-29T10:06:12;26.70;50.00
30290;DHT22;17105;55.652;37.710;2022-07-29T10:06:58;26.70;50.20
30290;DHT22;17105;55.652;37.710;2022-07-29T10:07:47;26.70;50.30
30290;DHT22;17105;55.652;37.710;2022-07-29T10:08:26;26.80;50.40
30290;DHT22;17105;55.652;37.710;2022-07-29T10:09:09;26.80;50.70
30290;DHT22;17105;55.652;37.710;2022-07-29T10:09:52;26.80;50.70
30290;DHT22;17105;55.652;37.710;2022-07-29T10:10:31;26.90;50.30
30290;DHT22;17105;55.652;37.710;2022-07-29T10:11:12;26.90;50.20
30290;DHT22;17105;55.652;37.710;2022-07-29T10:12:05;26.90;50.40
30290;DHT22;17105;55.652;37.710;2022-07-29T10:12:53;27.00;50.20
30290;DHT22;17105;55.652;37.710;2022-07-29T10:13:29;27.00;50.40
30290;DHT22;17105;55.652;37.710;2022-07-29T10:14:04;27.00;50.00
30290;DHT22;17105;55.652;37.710;2022-07-29T10:14:40;27.00;50.00
30290;DHT22;17105;55.652;37.710;2022-07-29T10:15:15;27.00;50.10
30290;DHT22;17105;55.652;37.710;2022-07-29T10:15:50;27.10;49.80
30290;DHT22;17105;55.652;37.710;2022-07-29T10:16:25;27.00;49.30
30290;DHT22;17105;55.652;37.710;2022-07-29T10:17:08;27.00;49.50
30290;DHT22;17105;55.652;37.710;2022-07-29T10:17:44;27.00;49.20
30290;DHT22;17105;55.652;37.710;2022-07-29T10:18:20;27.10;49.20
30290;DHT22;17105;55.652;37.710;2022-07-29T10:18:54;27.00;49.10
30290;DHT22;17105;55.652;37.710;2022-07-29T10:19:30;27.00;49.40
30290;DHT22;17105;55.652;37.710;2022-07-29T10:20:08;27.00;49.50
30290;DHT22;17105;55.652;37.710;2022-07-29T10:20:48;27.00;49.40
30290;DHT22;17105;55.652;37.710;2022-07-29T10:21:24;27.00;49.30
30290;DHT22;17105;55.652;37.710;2022-07-29T10:22:09;27.00;49.40
30290;DHT22;17105;55.652;37.710;2022-07-29T10:22:47;27.00;49.60
30290;DHT22;17105;55.652;37.710;2022-07-29T10:23:26;26.90;49.50
30290;DHT22;17105;55.652;37.710;2022-07-29T10:24:20;26.90;49.30
30290;DHT22;17105;55.652;37.710;2022-07-29T10:24:55;26.90;49.40
30290;DHT22;17105;55.652;37.710;2022-07-29T10:25:31;26.90;49.80
30290;DHT22;17105;55.652;37.710;2022-07-29T10:26:05;26.90;49.60
30290;DHT22;17105;55.652;37.710;2022-07-29T10:26:41;26.90;49.30
30290;DHT22;17105;55.652;37.710;2022-07-29T10:27:15;26.90;49.00
30290;DHT22;17105;55.652;37.710;2022-07-29T10:27:51;26.90;49.20
30290;DHT22;17105;55.652;37.710;2022-07-29T10:28:24;26.90;49.50
30290;DHT22;17105;55.652;37.710;2022-07-29T10:28:59;26.90;49.60
30290;DHT22;17105;55.652;37.710;2022-07-29T10:29:35;27.00;49.30
30290;DHT22;17105;55.652;37.710;2022-07-29T10:30:11;27.00;49.40
30290;DHT22;17105;55.652;37.710;2022-07-29T10:30:47;27.00;49.50
30290;DHT22;17105;55.652;37.710;2022-07-29T10:31:28;27.00;49.40
30290;DHT22;17105;55.652;37.710;2022-07-29T10:32:26;27.10;49.10
30290;DHT22;17105;55.652;37.710;2022-07-29T10:33:21;27.10;48.50
30290;DHT22;17105;55.652;37.710;2022-07-29T10:34:07;27.10;49.20
30290;DHT22;17105;55.652;37.710;2022-07-29T10:35:06;27.10;50.20
30290;DHT22;17105;55.652;37.710;2022-07-29T10:35:53;27.20;49.20
30290;DHT22;17105;55.652;37.710;2022-07-29T10:36:41;27.30;48.90
30290;DHT22;17105;55.652;37.710;2022-07-29T10:37:25;27.30;48.70
30290;DHT22;17105;55.652;37.710;2022-07-29T10:38:27;27.40;48.80
30290;DHT22;17105;55.652;37.710;2022-07-29T10:39:11;27.40;48.40
30290;DHT22;17105;55.652;37.710;2022-07-29T10:39:57;27.50;48.50
30290;DHT22;17105;55.652;37.710;2022-07-29T10:41:04;27.50;48.10
30290;DHT22;17105;55.652;37.710;2022-07-29T10:42:11;27.50;47.70
30290;DHT22;17105;55.652;37.710;2022-07-29T10:43:08;27.60;47.30
30290;DHT22;17105;55.652;37.710;2022-07-29T10:43:50;27.50;47.00
30290;DHT22;17105;55.652;37.710;2022-07-29T10:44:27;27.60;46.90
30290;DHT22;17105;55.652;37.710;2022-07-29T10:45:01;27.50;47.10
30290;DHT22;17105;55.652;37.710;2022-07-29T10:45:37;27.50;47.00
30290;DHT22;17105;55.652;37.710;2022-07-29T10:46:13;27.60;46.80
30290;DHT22;17105;55.652;37.710;2022-07-29T10:46:49;27.50;46.80
30290;DHT22;17105;55.652;37.710;2022-07-29T10:47:27;27.50;47.20
30290;DHT22;17105;55.652;37.710;2022-07-29T10:48:04;27.50;46.80
30290;DHT22;17105;55.652;37.710;2022-07-29T10:49:06;27.60;46.90
30290;DHT22;17105;55.652;37.710;2022-07-29T10:49:56;27.60;46.90
30290;DHT22;17105;55.652;37.710;2022-07-29T10:50:53;27.60;47.30
30290;DHT22;17105;55.652;37.710;2022-07-29T10:51:52;27.60;48.10
30290;DHT22;17105;55.652;37.710;2022-07-29T10:52:58;27.70;49.30
30290;DHT22;17105;55.652;37.710;2022-07-29T10:53:50;27.70;48.00
30290;DHT22;17105;55.652;37.710;2022-07-29T10:54:41;27.80;48.50
30290;DHT22;17105;55.652;37.710;2022-07-29T10:55:32;27.80;48.00
30290;DHT22;17105;55.652;37.710;2022-07-29T10:56:23;27.80;47.30
30290;DHT22;17105;55.652;37.710;2022-07-29T10:57:11;27.70;47.50
30290;DHT22;17105;55.652;37.710;2022-07-29T10:58:11;27.70;48.40
30290;DHT22;17105;55.652;37.710;2022-07-29T10:59:22;27.70;48.50
30290;DHT22;17105;55.652;37.710;2022-07-29T11:00:26;27.70;47.80
30290;DHT22;17105;55.652;37.710;2022-07-29T11:01:28;27.60;47.20
30290;DHT22;17105;55.652;37.710;2022-07-29T11:02:43;27.60;47.10
30290;DHT22;17105;55.652;37.710;2022-07-29T11:03:47;27.50;46.60
30290;DHT22;17105;55.652;37.710;2022-07-29T11:05:00;27.40;47.20
30290;DHT22;17105;55.652;37.710;2022-07-29T11:05:53;27.30;47.30
30290;DHT22;17105;55.652;37.710;2022-07-29T11:08:36;27.20;48.50
30290;DHT22;17105;55.652;37.710;2022-07-29T11:09:17;27.20;47.60
30290;DHT22;17105;55.652;37.710;2022-07-29T11:10:23;27.10;47.40
30290;DHT22;17105;55.652;37.710;2022-07-29T11:11:38;27.10;47.90
30290;DHT22;17105;55.652;37.710;2022-07-29T11:13:47;26.90;47.70
30290;DHT22;17105;55.652;37.710;2022-07-29T11:14:55;26.90;48.10
30290;DHT22;17105;55.652;37.710;2022-07-29T11:15:53;26.80;48.10
30290;DHT22;17105;55.652;37.710;2022-07-29T11:18:06;26.80;48.10
30290;DHT22;17105;55.652;37.710;2022-07-29T11:19:19;26.80;48.40
30290;DHT22;17105;55.652;37.710;2022-07-29T11:20:36;26.90;48.40
30290;DHT22;17105;55.652;37.710;2022-07-29T11:21:34;26.90;48.30
30290;DHT22;17105;55.652;37.710;2022-07-29T11:22:32;27.00;48.30
30290;DHT22;17105;55.652;37.710;2022-07-29T11:23:20;27.00;48.40
30290;DHT22;17105;55.652;37.710;2022-07-29T11:24:11;27.00;47.90
30290;DHT22;17105;55.652;37.710;2022-07-29T11:25:21;27.10;48.00
30290;DHT22;17105;55.652;37.710;2022-07-29T11:26:18;27.00;47.10
30290;DHT22;17105;55.652;37.710;2022-07-29T11:27:14;27.00;47.30
30290;DHT22;17105;55.652;37.710;2022-07-29T11:27:54;27.00;46.80
30290;DHT22;17105;55.652;37.710;2022-07-29T11:29:18;27.00;47.00
30290;DHT22;17105;55.652;37.710;2022-07-29T11:29:56;27.00;46.80
30290;DHT22;17105;55.652;37.710;2022-07-29T11:30:50;26.90;47.10
30290;DHT22;17105;55.652;37.710;2022-07-29T11:31:37;26.90;47.20
30290;DHT22;17105;55.652;37.710;2022-07-29T11:32:16;26.90;48.00
30290;DHT22;17105;55.652;37.710;2022-07-29T11:32:55;26.90;48.50
30290;DHT22;17105;55.652;37.710;2022-07-29T11:33:31;26.90;48.60
30290;DHT22;17105;55.652;37.710;2022-07-29T11:34:27;26.90;50.30
30290;DHT22;17105;55.652;37.710;2022-07-29T11:35:15;26.90;48.40
30290;DHT22;17105;55.652;37.710;2022-07-29T11:36:07;27.00;49.10
30290;DHT22;17105;55.652;37.710;2022-07-29T11:37:13;27.00;47.90
30290;DHT22;17105;55.652;37.710;2022-07-29T11:38:24;27.00;48.70
30290;DHT22;17105;55.652;37.710;2022-07-29T11:39:25;27.00;47.40
30290;DHT22;17105;55.652;37.710;2022-07-29T11:40:14;27.00;47.80
30290;DHT22;17105;55.652;37.710;2022-07-29T11:41:40;26.90;49.30
30290;DHT22;17105;55.652;37.710;2022-07-29T11:43:47;27.00;49.10
30290;DHT22;17105;55.652;37.710;2022-07-29T11:44:55;27.00;48.40
30290;DHT22;17105;55.652;37.710;2022-07-29T11:45:46;27.00;48.40
30290;DHT22;17105;55.652;37.710;2022-07-29T11:46:43;27.00;48.50
30290;DHT22;17105;55.652;37.710;2022-07-29T11:47:19;27.00;48.50
30290;DHT22;17105;55.652;37.710;2022-07-29T11:47:57;27.00;48.40
30290;DHT22;17105;55.652;37.710;2022-07-29T11:48:55;27.00;48.20
30290;DHT22;17105;55.652;37.710;2022-07-29T11:49:30;27.00;48.20
30290;DHT22;17105;55.652;37.710;2022-07-29T11:50:10;26.90;47.90
30290;DHT22;17105;55.652;37.710;2022-07-29T11:50:46;26.90;47.90
30290;DHT22;17105;55.652;37.710;2022-07-29T11:51:21;26.90;48.10
30290;DHT22;17105;55.652;37.710;2022-07-29T11:52:05;26.80;48.10
30290;DHT22;17105;55.652;37.710;2022-07-29T11:52:46;26.80;48.30
30290;DHT22;17105;55.652;37.710;2022-07-29T11:53:21;26.80;48.10
30290;DHT22;17105;55.652;37.710;2022-07-29T11:53:57;26.80;48.20
30290;DHT22;17105;55.652;37.710;2022-07-29T11:54:37;26.70;48.20
30290;DHT22;17105;55.652;37.710;2022-07-29T11:55:30;26.70;48.20
30290;DHT22;17105;55.652;37.710;2022-07-29T11:56:23;26.70;48.70
30290;DHT22;17105;55.652;37.710;2022-07-29T11:57:01;26.70;48.80
30290;DHT22;17105;55.652;37.710;2022-07-29T11:57:36;26.70;48.60
30290;DHT22;17105;55.652;37.710;2022-07-29T11:58:10;26.60;48.50
30290;DHT22;17105;55.652;37.710;2022-07-29T11:58:49;26.70;48.70
30290;DHT22;17105;55.652;37.710;2022-07-29T11:59:24;26.60;48.50
30290;DHT22;17105;55.652;37.710;2022-07-29T12:00:09;26.60;48.40
30290;DHT22;17105;55.652;37.710;2022-07-29T12:00:50;26.60;48.80
30290;DHT22;17105;55.652;37.710;2022-07-29T12:01:52;26.50;48.90
30290;DHT22;17105;55.652;37.710;2022-07-29T12:02:48;26.60;49.10
30290;DHT22;17105;55.652;37.710;2022-07-29T12:03:24;26.60;49.20
30290;DHT22;17105;55.652;37.710;2022-07-29T12:04:08;26.60;48.80
30290;DHT22;17105;55.652;37.710;2022-07-29T12:04:51;26.60;48.90
30290;DHT22;17105;55.652;37.710;2022-07-29T12:05:35;26.60;49.20
30290;DHT22;17105;55.652;37.710;2022-07-29T12:06:21;26.60;48.90
30290;DHT22;17105;55.652;37.710;2022-07-29T12:06:56;26.60;49.10
30290;DHT22;17105;55.652;37.710;2022-07-29T12:07:33;26.60;49.20
30290;DHT22;17105;55.652;37.710;2022-07-29T12:08:14;26.60;49.10
30290;DHT22;17105;55.652;37.710;2022-07-29T12:08:50;26.60;48.70
30290;DHT22;17105;55.652;37.710;2022-07-29T12:09:24;26.60;49.30
30290;DHT22;17105;55.652;37.710;2022-07-29T12:09:57;26.50;48.80
30290;DHT22;17105;55.652;37.710;2022-07-29T12:10:33;26.50;48.80
30290;DHT22;17105;55.652;37.710;2022-07-29T12:11:15;26.50;48.90
30290;DHT22;17105;55.652;37.710;2022-07-29T12:11:57;26.50;48.90
30290;DHT22;17105;55.652;37.710;2022-07-29T12:12:38;26.50;48.80
30290;DHT22;17105;55.652;37.710;2022-07-29T12:13:13;26.50;48.80
30290;DHT22;17105;55.652;37.710;2022-07-29T12:13:50;26.50;49.10
30290;DHT22;17105;55.652;37.710;2022-07-29T12:14:26;26.50;49.50
30290;DHT22;17105;55.652;37.710;2022-07-29T12:15:14;26.50;49.40
30290;DHT22;17105;55.652;37.710;2022-07-29T12:16:19;26.50;49.00
30290;DHT22;17105;55.652;37.710;2022-07-29T12:17:00;26.40;48.60
30290;DHT22;17105;55.652;37.710;2022-07-29T12:17:38;26.40;48.50
30290;DHT22;17105;55.652;37.710;2022-07-29T12:18:14;26.40;48.60
30290;DHT22;17105;55.652;37.710;2022-07-29T12:18:57;26.40;48.60